Time;durP1;ratioP1;P1;durP2;ratioP2;P2;SDS_P1;SDS_P2;PMS_P1;PMS_P2;Temp;Humidity;BMP_temperature;BMP_pressure;BME280_temperature;BME280_humidity;BME280_pressure;Samples;Min_cycle;Max_cycle;Signal;HPM_P1;HPM_P2
2023/06/25 00:02:02;;;;;;;10.68;8.57;;;;;;;;;;10274212;28;20047;-74
2023/06/25 00:07:03;;;;;;;10.20;8.25;;;;;;;;;;10274131;28;20046;-73
2023/06/25 00:12:04;;;;;;;10.40;8.50;;;;;;;;;;10270828;28;20080;-73
2023/06/25 00:17:04;;;;;;;10.40;8.65;;;;;;;;;;10274902;28;20046;-73
2023/06/25 00:22:05;;;;;;;10.75;8.13;;;;;;;;;;10267043;28;20822;-73
2023/06/25 00:27:05;;;;;;;9.60;8.60;;;;;;;;;;10273065;28;20117;-73
2023/06/25 00:32:06;;;;;;;10.27;8.80;;;;;;;;;;10274331;28;20049;-73
2023/06/25 00:37:17;;;;;;;11.20;9.00;;;;;;;;;;10273436;28;20238;-74
2023/06/25 00:42:17;;;;;;;9.43;8.43;;;;;;;;;;10272178;28;20050;-74
2023/06/25 00:47:18;;;;;;;11.40;9.60;;;;;;;;;;10279989;28;20417;-74
2023/06/25 00:52:19;;;;;;;11.45;9.07;;;;;;;;;;10263119;28;20333;-73
2023/06/25 00:57:21;;;;;;;11.88;9.68;;;;;;;;;;10278166;28;20049;-73
2023/06/25 01:02:24;;;;;;;11.50;9.60;;;;;;;;;;10263833;28;20046;-73
2023/06/25 01:07:25;;;;;;;13.68;10.68;;;;;;;;;;10278294;28;20867;-73
2023/06/25 01:12:26;;;;;;;11.50;9.35;;;;;;;;;;10272931;28;20163;-73
2023/06/25 01:17:26;;;;;;;13.10;9.73;;;;;;;;;;10259565;28;20050;-74
2023/06/25 01:22:30;;;;;;;11.32;9.90;;;;;;;;;;10280447;28;20138;-73
2023/06/25 01:27:32;;;;;;;11.52;9.45;;;;;;;;;;10278748;28;21223;-73
2023/06/25 01:32:32;;;;;;;10.68;9.50;;;;;;;;;;10275419;28;20050;-72
2023/06/25 01:37:33;;;;;;;11.40;9.20;;;;;;;;;;10277349;28;20552;-72
2023/06/25 01:42:34;;;;;;;9.80;8.80;;;;;;;;;;10284539;28;20294;-73
2023/06/25 01:47:36;;;;;;;12.05;9.75;;;;;;;;;;10267378;28;20724;-76
2023/06/25 01:52:36;;;;;;;10.73;9.32;;;;;;;;;;10271962;28;20062;-72
2023/06/25 01:57:37;;;;;;;11.20;10.00;;;;;;;;;;10276567;28;20900;-72
2023/06/25 02:02:37;;;;;;;9.90;8.90;;;;;;;;;;10265876;28;20059;-73
2023/06/25 02:07:37;;;;;;;12.20;9.27;;;;;;;;;;10243498;28;20050;-72
2023/06/25 02:12:38;;;;;;;11.33;9.20;;;;;;;;;;10263134;28;20314;-72
2023/06/25 02:17:38;;;;;;;10.57;9.20;;;;;;;;;;10278163;28;20305;-72
2023/06/25 02:22:39;;;;;;;11.90;10.00;;;;;;;;;;10264061;28;20306;-73
2023/06/25 02:27:39;;;;;;;11.27;9.77;;;;;;;;;;10271846;28;20050;-73
2023/06/25 02:32:40;;;;;;;9.75;8.75;;;;;;;;;;10263323;28;20049;-72
2023/06/25 02:37:41;;;;;;;10.18;9.00;;;;;;;;;;10255165;28;20054;-73
2023/06/25 02:42:41;;;;;;;10.33;8.70;;;;;;;;;;10277101;28;20054;-72
2023/06/25 02:47:41;;;;;;;9.93;8.63;;;;;;;;;;10274660;28;20586;-72
2023/06/25 02:52:46;;;;;;;11.85;8.98;;;;;;;;;;10244228;28;20058;-73
2023/06/25 02:57:47;;;;;;;11.57;9.27;;;;;;;;;;10246459;28;20376;-73
2023/06/25 03:02:48;;;;;;;11.50;9.57;;;;;;;;;;10274527;28;20054;-73
2023/06/25 03:07:58;;;;;;;10.77;9.65;;;;;;;;;;10266010;28;20050;-74
2023/06/25 03:12:59;;;;;;;11.23;9.88;;;;;;;;;;10266289;28;20089;-73
2023/06/25 03:18:00;;;;;;;10.30;9.02;;;;;;;;;;10247769;28;20763;-73
2023/06/25 03:23:00;;;;;;;11.60;9.02;;;;;;;;;;10258988;28;20042;-72
2023/06/25 03:28:01;;;;;;;12.50;10.27;;;;;;;;;;10274869;28;20267;-72
2023/06/25 03:33:02;;;;;;;11.60;9.35;;;;;;;;;;10259093;28;20652;-73
2023/06/25 03:38:04;;;;;;;10.93;8.93;;;;;;;;;;10256721;28;20157;-78
2023/06/25 03:43:05;;;;;;;11.05;9.57;;;;;;;;;;10272838;28;20542;-75
2023/06/25 03:48:07;;;;;;;13.02;9.95;;;;;;;;;;10256234;28;20051;-75
2023/06/25 03:53:08;;;;;;;12.57;9.93;;;;;;;;;;10269212;28;20054;-75
2023/06/25 03:58:12;;;;;;;10.43;9.38;;;;;;;;;;10272170;28;20050;-75
2023/06/25 04:03:12;;;;;;;10.60;9.50;;;;;;;;;;10253622;28;20051;-75
2023/06/25 04:08:13;;;;;;;11.37;9.80;;;;;;;;;;10276071;28;20406;-76
2023/06/25 04:13:13;;;;;;;11.48;9.65;;;;;;;;;;10251491;28;20310;-76
2023/06/25 04:18:14;;;;;;;11.30;9.53;;;;;;;;;;10279418;28;20047;-74
2023/06/25 04:23:14;;;;;;;12.15;9.00;;;;;;;;;;10277428;28;20043;-76
2023/06/25 04:28:16;;;;;;;11.25;9.77;;;;;;;;;;10265924;28;20043;-74
2023/06/25 04:33:18;;;;;;;11.98;9.75;;;;;;;;;;10283905;28;20053;-75
2023/06/25 04:38:19;;;;;;;11.43;8.48;;;;;;;;;;10282185;28;20038;-74
2023/06/25 04:43:19;;;;;;;10.17;8.93;;;;;;;;;;10279459;28;20043;-75
2023/06/25 04:48:20;;;;;;;9.90;8.52;;;;;;;;;;10278129;28;20360;-74
2023/06/25 04:53:20;;;;;;;11.33;8.73;;;;;;;;;;10286177;28;20525;-76
2023/06/25 04:58:20;;;;;;;10.53;8.50;;;;;;;;;;10272176;28;20344;-76
2023/06/25 05:03:21;;;;;;;13.13;8.70;;;;;;;;;;10282350;28;20293;-76
2023/06/25 05:08:21;;;;;;;10.65;8.68;;;;;;;;;;10253674;28;20057;-74
2023/06/25 05:13:21;;;;;;;10.87;8.77;;;;;;;;;;10258336;28;20050;-74
2023/06/25 05:18:23;;;;;;;10.63;9.13;;;;;;;;;;10283337;28;20285;-75
2023/06/25 05:23:24;;;;;;;11.73;9.77;;;;;;;;;;10275711;28;20054;-76
2023/06/25 05:28:26;;;;;;;12.68;9.30;;;;;;;;;;10275547;28;20064;-76
2023/06/25 05:33:26;;;;;;;9.95;8.50;;;;;;;;;;10276326;28;20051;-77
2023/06/25 05:38:26;;;;;;;9.50;7.90;;;;;;;;;;10268437;28;20047;-76
2023/06/25 05:43:27;;;;;;;10.63;8.30;;;;;;;;;;10278875;28;20187;-76
2023/06/25 05:48:27;;;;;;;10.80;8.87;;;;;;;;;;10273931;28;20530;-76
2023/06/25 05:53:36;;;;;;;10.97;8.30;;;;;;;;;;10276326;28;20083;-74
2023/06/25 05:58:37;;;;;;;9.35;7.68;;;;;;;;;;10274164;28;20046;-78
2023/06/25 06:03:37;;;;;;;8.68;7.13;;;;;;;;;;10290099;28;20061;-76
2023/06/25 06:08:37;;;;;;;8.48;7.30;;;;;;;;;;10323610;28;20046;-79
2023/06/25 06:13:38;;;;;;;8.30;7.23;;;;;;;;;;10299105;28;20392;-82
2023/06/25 06:18:38;;;;;;;8.47;6.80;;;;;;;;;;10298490;28;20054;-77
2023/06/25 06:23:38;;;;;;;16.10;13.63;;;;;;;;;;10281250;28;20047;-77
2023/06/25 06:28:39;;;;;;;8.45;7.40;;;;;;;;;;10274695;28;20302;-77
2023/06/25 06:33:39;;;;;;;9.93;8.07;;;;;;;;;;10275911;28;20050;-78
2023/06/25 06:38:39;;;;;;;7.90;6.87;;;;;;;;;;10283237;28;20065;-77
2023/06/25 06:43:40;;;;;;;6.60;5.83;;;;;;;;;;10283965;28;21151;-76
2023/06/25 06:48:40;;;;;;;7.97;6.07;;;;;;;;;;10282574;28;20058;-76
2023/06/25 06:53:40;;;;;;;7.03;5.87;;;;;;;;;;10278398;28;20066;-77
2023/06/25 06:58:41;;;;;;;9.02;7.10;;;;;;;;;;10244741;28;20656;-78
2023/06/25 07:03:41;;;;;;;8.93;7.80;;;;;;;;;;10264735;28;20188;-79
2023/06/25 07:08:41;;;;;;;9.43;6.47;;;;;;;;;;10277869;28;21347;-81
2023/06/25 07:13:43;;;;;;;8.00;5.43;;;;;;;;;;10275414;28;20070;-79
2023/06/25 07:18:43;;;;;;;6.80;5.85;;;;;;;;;;10273782;28;20043;-79
2023/06/25 07:23:44;;;;;;;7.10;5.68;;;;;;;;;;10267335;28;20604;-77
2023/06/25 07:28:44;;;;;;;7.57;5.40;;;;;;;;;;10276110;28;20051;-79
2023/06/25 07:33:44;;;;;;;7.10;5.32;;;;;;;;;;10271599;28;20058;-77
2023/06/25 07:38:45;;;;;;;5.87;5.30;;;;;;;;;;10271311;28;20042;-79
2023/06/25 07:43:45;;;;;;;7.05;6.00;;;;;;;;;;10269515;28;20348;-77
2023/06/25 07:48:45;;;;;;;6.67;6.00;;;;;;;;;;10269124;28;20109;-77
2023/06/25 07:53:46;;;;;;;6.13;5.47;;;;;;;;;;10270926;28;20051;-77
2023/06/25 07:58:46;;;;;;;6.23;5.13;;;;;;;;;;10259892;28;20804;-78
2023/06/25 08:03:46;;;;;;;5.30;4.80;;;;;;;;;;10280596;28;20566;-79
2023/06/25 08:08:47;;;;;;;5.90;4.77;;;;;;;;;;10282907;28;20070;-77
2023/06/25 08:13:47;;;;;;;6.03;5.10;;;;;;;;;;10258025;28;20054;-80
2023/06/25 08:18:48;;;;;;;5.20;4.40;;;;;;;;;;10270844;28;20395;-78
2023/06/25 08:23:48;;;;;;;6.10;4.80;;;;;;;;;;10259823;28;20097;-81
2023/06/25 08:28:49;;;;;;;5.40;4.90;;;;;;;;;;10261185;28;20967;-78
2023/06/25 08:33:50;;;;;;;4.70;4.30;;;;;;;;;;10276021;28;20053;-77
2023/06/25 08:38:50;;;;;;;4.95;4.45;;;;;;;;;;10274586;28;20541;-77
2023/06/25 08:43:53;;;;;;;5.20;4.70;;;;;;;;;;10272162;28;20046;-76
2023/06/25 08:48:53;;;;;;;5.35;4.22;;;;;;;;;;10278683;28;20058;-76
2023/06/25 08:53:55;;;;;;;6.68;4.30;;;;;;;;;;10283196;28;20876;-76
2023/06/25 08:58:55;;;;;;;4.67;4.10;;;;;;;;;;10261080;28;20055;-77
2023/06/25 09:03:55;;;;;;;4.93;4.40;;;;;;;;;;10282089;28;20050;-76
2023/06/25 09:08:57;;;;;;;4.90;4.13;;;;;;;;;;10277797;28;20054;-77
2023/06/25 09:13:59;;;;;;;6.13;4.47;;;;;;;;;;10284191;28;20530;-76
2023/06/25 09:19:00;;;;;;;4.60;4.15;;;;;;;;;;10292981;28;20454;-76
2023/06/25 09:24:09;;;;;;;4.78;4.25;;;;;;;;;;10295394;28;20046;-75
2023/06/25 09:29:10;;;;;;;5.18;4.05;;;;;;;;;;10286301;28;20088;-76
2023/06/25 09:34:15;;;;;;;4.25;3.85;;;;;;;;;;10268134;28;20051;-77
2023/06/25 09:39:15;;;;;;;5.05;4.15;;;;;;;;;;10247393;28;20138;-77
2023/06/25 09:44:17;;;;;;;6.57;4.28;;;;;;;;;;10280221;28;20407;-77
2023/06/25 09:49:19;;;;;;;4.18;3.55;;;;;;;;;;10270001;28;20051;-76
2023/06/25 09:54:19;;;;;;;;;;;;;;;;;;10281333;28;20212;-77
2023/06/25 09:59:20;;;;;;;7.45;4.43;;;;;;;;;;10280704;28;19924;-76
2023/06/25 10:04:21;;;;;;;6.13;4.38;;;;;;;;;;10274070;28;20557;-77
2023/06/25 10:09:22;;;;;;;5.47;4.20;;;;;;;;;;10273542;28;20138;-76
2023/06/25 10:14:23;;;;;;;5.13;4.33;;;;;;;;;;10262809;28;20130;-76
2023/06/25 10:19:24;;;;;;;4.40;3.80;;;;;;;;;;10285156;28;20529;-76
2023/06/25 10:24:24;;;;;;;4.68;3.50;;;;;;;;;;10281493;28;20538;-77
2023/06/25 10:29:25;;;;;;;5.03;3.60;;;;;;;;;;10274148;28;20050;-77
2023/06/25 10:34:25;;;;;;;4.37;3.83;;;;;;;;;;10277978;28;20051;-78
2023/06/25 10:39:34;;;;;;;4.37;3.97;;;;;;;;;;10278623;28;20057;-78
2023/06/25 10:44:35;;;;;;;4.10;3.70;;;;;;;;;;10281358;28;20128;-77
2023/06/25 10:49:35;;;;;;;4.00;3.60;;;;;;;;;;10284252;28;20101;-78
2023/06/25 10:54:36;;;;;;;4.30;3.90;;;;;;;;;;10243174;28;20062;-77
2023/06/25 10:59:37;;;;;;;4.03;3.63;;;;;;;;;;10276816;28;20051;-77
2023/06/25 11:04:37;;;;;;;4.20;3.80;;;;;;;;;;10284837;28;20058;-78
2023/06/25 11:09:39;;;;;;;3.77;3.43;;;;;;;;;;10268228;28;20046;-77
2023/06/25 11:14:39;;;;;;;4.68;3.80;;;;;;;;;;10267161;28;20082;-77
2023/06/25 11:19:40;;;;;;;4.27;3.87;;;;;;;;;;10278769;28;20053;-77
2023/06/25 11:24:41;;;;;;;3.80;3.50;;;;;;;;;;10276128;28;20493;-76
2023/06/25 11:29:42;;;;;;;4.93;4.10;;;;;;;;;;10276320;28;20062;-78
2023/06/25 11:34:45;;;;;;;3.90;3.50;;;;;;;;;;10273781;28;20174;-77
2023/06/25 11:39:46;;;;;;;4.78;3.90;;;;;;;;;;10261945;28;20733;-77
2023/06/25 11:45:00;;;;;;;3.50;3.20;;;;;;;;;;10276328;28;20051;-77
2023/06/25 11:50:00;;;;;;;3.80;3.40;;;;;;;;;;10237890;28;20157;-77
2023/06/25 11:55:01;;;;;;;4.03;3.63;;;;;;;;;;10277142;28;20484;-78
2023/06/25 12:00:01;;;;;;;3.73;3.37;;;;;;;;;;10277749;28;20291;-76
2023/06/25 12:05:06;;;;;;;4.25;3.85;;;;;;;;;;10262968;28;20054;-76
2023/06/25 12:10:06;;;;;;;4.68;3.88;;;;;;;;;;10278368;28;20495;-78
2023/06/25 12:15:07;;;;;;;4.10;3.70;;;;;;;;;;10247118;28;20043;-76
2023/06/25 12:20:08;;;;;;;4.13;3.72;;;;;;;;;;10272533;28;20054;-77
2023/06/25 12:25:10;;;;;;;3.93;3.57;;;;;;;;;;10286160;28;20043;-76
2023/06/25 12:30:11;;;;;;;4.25;3.80;;;;;;;;;;10292562;28;20141;-77
2023/06/25 12:35:11;;;;;;;4.27;3.87;;;;;;;;;;10287121;28;20129;-77
2023/06/25 12:40:12;;;;;;;3.53;3.23;;;;;;;;;;10285581;28;20047;-77
2023/06/25 12:45:12;;;;;;;4.03;3.67;;;;;;;;;;10282917;28;20053;-77
2023/06/25 12:50:12;;;;;;;3.73;3.43;;;;;;;;;;10276276;28;20047;-78
2023/06/25 12:55:13;;;;;;;4.47;3.70;;;;;;;;;;10289270;28;20061;-77
2023/06/25 13:00:23;;;;;;;4.43;3.30;;;;;;;;;;10282929;28;20043;-78
2023/06/25 13:05:24;;;;;;;3.50;3.20;;;;;;;;;;10264208;28;20065;-77
2023/06/25 13:10:24;;;;;;;3.97;3.30;;;;;;;;;;10284439;28;20399;-77
2023/06/25 13:15:24;;;;;;;3.90;3.60;;;;;;;;;;10289347;28;20053;-77
2023/06/25 13:20:25;;;;;;;4.13;3.73;;;;;;;;;;10288345;28;20034;-78
2023/06/25 13:25:25;;;;;;;4.13;3.53;;;;;;;;;;10288985;28;20050;-77
2023/06/25 13:30:26;;;;;;;4.60;3.70;;;;;;;;;;10284829;28;20109;-77
2023/06/25 13:35:26;;;;;;;4.40;3.90;;;;;;;;;;10282236;28;20051;-78
2023/06/25 13:40:27;;;;;;;4.37;3.97;;;;;;;;;;10276992;28;20061;-79
2023/06/25 13:45:28;;;;;;;4.40;3.70;;;;;;;;;;10298499;28;20475;-79
2023/06/25 13:50:28;;;;;;;3.97;3.67;;;;;;;;;;10286271;28;20038;-78
2023/06/25 13:55:29;;;;;;;4.33;3.93;;;;;;;;;;10285578;28;20151;-78
2023/06/25 14:00:29;;;;;;;4.37;3.97;;;;;;;;;;10265067;28;20511;-78
2023/06/25 14:05:35;;;;;;;4.13;3.72;;;;;;;;;;10281085;28;20054;-76
2023/06/25 14:10:35;;;;;;;3.70;3.40;;;;;;;;;;10284285;28;20054;-79
2023/06/25 14:15:36;;;;;;;4.40;4.00;;;;;;;;;;10286708;28;20541;-77
2023/06/25 14:20:36;;;;;;;4.33;3.93;;;;;;;;;;10297965;28;20121;-78
2023/06/25 14:25:37;;;;;;;4.60;4.00;;;;;;;;;;10282240;28;20750;-78
2023/06/25 14:30:40;;;;;;;3.90;3.45;;;;;;;;;;10278108;28;20051;-78
2023/06/25 14:35:40;;;;;;;3.97;3.57;;;;;;;;;;10283143;28;20352;-79
2023/06/25 14:40:41;;;;;;;4.37;3.97;;;;;;;;;;10282721;28;20085;-77
2023/06/25 14:45:41;;;;;;;3.73;3.43;;;;;;;;;;10282725;28;20701;-78
2023/06/25 14:50:41;;;;;;;4.70;4.10;;;;;;;;;;10280282;28;20042;-78
2023/06/25 14:55:42;;;;;;;4.03;3.33;;;;;;;;;;10275107;28;20070;-77
2023/06/25 15:00:42;;;;;;;4.18;3.75;;;;;;;;;;10280745;28;20054;-78
2023/06/25 15:05:43;;;;;;;4.20;3.57;;;;;;;;;;10282012;28;20046;-78
2023/06/25 15:10:43;;;;;;;5.17;3.97;;;;;;;;;;10285783;28;20046;-76
2023/06/25 15:15:43;;;;;;;4.73;3.90;;;;;;;;;;10282858;28;20057;-77
2023/06/25 15:20:44;;;;;;;;;;;;;;;;;;10295876;28;20058;-77
2023/06/25 15:25:44;;;;;;;4.13;3.72;;;;;;;;;;10316386;28;19922;-76
2023/06/25 15:30:44;;;;;;;4.10;3.70;;;;;;;;;;10318316;28;20039;-77
2023/06/25 15:35:45;;;;;;;;;;;;;;;;;;10267811;28;20057;-79
2023/06/25 15:40:49;;;;;;;3.92;3.53;;;;;;;;;;10284219;28;19956;-78
2023/06/25 15:45:49;;;;;;;4.25;3.85;;;;;;;;;;10283031;28;20043;-78
2023/06/25 15:50:50;;;;;;;4.57;4.07;;;;;;;;;;10259897;28;20420;-78
2023/06/25 15:55:50;;;;;;;4.78;4.38;;;;;;;;;;10267217;28;20297;-77
2023/06/25 16:00:51;;;;;;;5.97;4.27;;;;;;;;;;10282210;28;20038;-77
2023/06/25 16:05:51;;;;;;;4.10;3.80;;;;;;;;;;10284731;28;20328;-78
2023/06/25 16:10:51;;;;;;;4.57;4.03;;;;;;;;;;10293110;28;20486;-79
2023/06/25 16:15:52;;;;;;;4.00;3.70;;;;;;;;;;10269424;28;20107;-77
2023/06/25 16:20:52;;;;;;;4.27;3.87;;;;;;;;;;10286023;28;20390;-79
2023/06/25 16:25:52;;;;;;;4.57;4.17;;;;;;;;;;10268152;28;20046;-79
2023/06/25 16:30:53;;;;;;;4.80;4.07;;;;;;;;;;10290372;28;20633;-77
2023/06/25 16:35:53;;;;;;;4.00;3.60;;;;;;;;;;10286223;28;20066;-79
2023/06/25 16:40:54;;;;;;;4.07;3.70;;;;;;;;;;10285758;28;20079;-81
2023/06/25 16:45:54;;;;;;;4.07;3.67;;;;;;;;;;10290749;28;20085;-76
2023/06/25 16:50:55;;;;;;;4.20;3.80;;;;;;;;;;10288415;28;20053;-77
2023/06/25 16:55:55;;;;;;;4.93;3.97;;;;;;;;;;10270029;28;20157;-78
2023/06/25 17:00:56;;;;;;;4.10;3.70;;;;;;;;;;10284245;28;20121;-79
2023/06/25 17:05:56;;;;;;;6.37;4.37;;;;;;;;;;10269696;28;20160;-77
2023/06/25 17:10:56;;;;;;;5.10;4.20;;;;;;;;;;10281441;28;20194;-79
2023/06/25 17:15:57;;;;;;;4.73;4.13;;;;;;;;;;10286012;28;20178;-76
2023/06/25 17:20:57;;;;;;;4.00;3.40;;;;;;;;;;10281161;28;20134;-75
2023/06/25 17:25:58;;;;;;;4.83;4.30;;;;;;;;;;10267202;28;20091;-77
2023/06/25 17:30:58;;;;;;;4.70;4.17;;;;;;;;;;10284285;28;20047;-77
2023/06/25 17:35:58;;;;;;;4.70;4.30;;;;;;;;;;10273554;28;20062;-78
2023/06/25 17:40:59;;;;;;;4.77;4.30;;;;;;;;;;10281905;28;20043;-76
2023/06/25 17:46:00;;;;;;;5.27;4.50;;;;;;;;;;10266856;28;20050;-76
2023/06/25 17:51:00;;;;;;;;;;;;;;;;;;10281673;28;20070;-76
2023/06/25 17:56:02;;;;;;;4.33;3.93;;;;;;;;;;10276820;28;20383;-77
2023/06/25 18:01:02;;;;;;;4.78;4.28;;;;;;;;;;10271814;28;20047;-79
2023/06/25 18:06:03;;;;;;;4.73;4.27;;;;;;;;;;10279054;28;20160;-76
2023/06/25 18:11:16;;;;;;;4.90;4.40;;;;;;;;;;10282549;28;20112;-76
2023/06/25 18:16:18;;;;;;;4.32;3.92;;;;;;;;;;10279040;28;20073;-78
2023/06/25 18:21:18;;;;;;;5.07;4.20;;;;;;;;;;10265597;28;20050;-77
2023/06/25 18:26:18;;;;;;;4.70;4.20;;;;;;;;;;10279959;28;20598;-75
2023/06/25 18:31:19;;;;;;;5.33;4.83;;;;;;;;;;10278245;28;20046;-78
2023/06/25 18:36:19;;;;;;;6.07;5.47;;;;;;;;;;10281167;28;20062;-76
2023/06/25 18:41:19;;;;;;;7.40;5.90;;;;;;;;;;10246634;28;20050;-77
2023/06/25 18:46:20;;;;;;;5.37;4.27;;;;;;;;;;10266232;28;20122;-78
2023/06/25 18:51:20;;;;;;;5.53;5.03;;;;;;;;;;10266349;28;20437;-78
2023/06/25 18:56:20;;;;;;;5.47;4.43;;;;;;;;;;10261281;28;20059;-77
2023/06/25 19:01:21;;;;;;;4.43;3.97;;;;;;;;;;10279355;28;20045;-78
2023/06/25 19:06:21;;;;;;;5.20;4.67;;;;;;;;;;10284811;28;20046;-78
2023/06/25 19:11:21;;;;;;;5.03;4.63;;;;;;;;;;10283076;28;20059;-79
2023/06/25 19:16:22;;;;;;;7.13;5.73;;;;;;;;;;10282098;28;20046;-78
2023/06/25 19:21:24;;;;;;;7.73;6.30;;;;;;;;;;10275796;28;20058;-76
2023/06/25 19:26:24;;;;;;;;;;;;;;;;;;10259021;28;20051;-78
2023/06/25 19:31:24;;;;;;;6.90;6.20;;;;;;;;;;10260549;28;20657;-78
2023/06/25 19:36:25;;;;;;;6.63;5.80;;;;;;;;;;10265432;28;20055;-75
2023/06/25 19:41:25;;;;;;;6.87;5.93;;;;;;;;;;10278172;28;20057;-77
2023/06/25 19:46:26;;;;;;;7.53;6.73;;;;;;;;;;10272612;28;20085;-77
2023/06/25 19:51:26;;;;;;;10.55;8.38;;;;;;;;;;10273989;28;20327;-77
2023/06/25 19:56:29;;;;;;;10.57;8.70;;;;;;;;;;10263549;28;20065;-78
2023/06/25 20:01:30;;;;;;;10.20;8.48;;;;;;;;;;10265801;28;20479;-77
2023/06/25 20:06:30;;;;;;;11.83;8.50;;;;;;;;;;10281305;28;20055;-76
2023/06/25 20:11:30;;;;;;;8.20;7.37;;;;;;;;;;10263242;28;20297;-77
2023/06/25 20:16:31;;;;;;;7.68;6.75;;;;;;;;;;10253938;28;20136;-76
2023/06/25 20:21:31;;;;;;;8.77;6.83;;;;;;;;;;10256157;28;20066;-77
2023/06/25 20:26:32;;;;;;;8.60;7.53;;;;;;;;;;10260661;28;20413;-76
2023/06/25 20:31:32;;;;;;;8.23;7.30;;;;;;;;;;10261137;28;20080;-77
2023/06/25 20:36:33;;;;;;;10.48;8.18;;;;;;;;;;10280282;28;20326;-76
2023/06/25 20:41:33;;;;;;;10.07;8.65;;;;;;;;;;10274807;28;20378;-76
2023/06/25 20:46:34;;;;;;;9.27;7.23;;;;;;;;;;10269407;28;20035;-76
2023/06/25 20:51:34;;;;;;;9.48;7.68;;;;;;;;;;10277191;28;20133;-77
2023/06/25 20:56:35;;;;;;;8.97;7.90;;;;;;;;;;10271782;28;20518;-77
2023/06/25 21:01:35;;;;;;;8.70;7.13;;;;;;;;;;10285655;28;20584;-78
2023/06/25 21:06:40;;;;;;;9.57;8.50;;;;;;;;;;10265329;28;20610;-74
2023/06/25 21:11:40;;;;;;;9.32;8.07;;;;;;;;;;10279696;28;20293;-76
2023/06/25 21:16:41;;;;;;;10.40;8.20;;;;;;;;;;10282602;28;20069;-76
2023/06/25 21:21:41;;;;;;;9.00;7.27;;;;;;;;;;10286285;28;20289;-75
2023/06/25 21:26:41;;;;;;;8.13;7.20;;;;;;;;;;10287851;28;20294;-75
2023/06/25 21:31:42;;;;;;;8.80;7.90;;;;;;;;;;10284413;28;20271;-76
2023/06/25 21:36:42;;;;;;;8.87;7.43;;;;;;;;;;10265643;28;20324;-75
2023/06/25 21:41:42;;;;;;;9.00;7.30;;;;;;;;;;10267167;28;20144;-77
2023/06/25 21:46:43;;;;;;;9.57;6.97;;;;;;;;;;10284166;28;20097;-79
2023/06/25 21:51:43;;;;;;;7.95;6.82;;;;;;;;;;10268791;28;20138;-75
2023/06/25 21:56:43;;;;;;;8.20;7.00;;;;;;;;;;10277901;28;20949;-75
2023/06/25 22:01:44;;;;;;;9.70;7.95;;;;;;;;;;10254223;28;20050;-76
2023/06/25 22:06:44;;;;;;;9.00;7.93;;;;;;;;;;10283260;28;20048;-76
2023/06/25 22:11:45;;;;;;;8.73;7.33;;;;;;;;;;10261210;28;20513;-75
2023/06/25 22:16:46;;;;;;;8.55;7.65;;;;;;;;;;10280988;28;20057;-75
2023/06/25 22:21:47;;;;;;;8.87;7.97;;;;;;;;;;10283540;28;20411;-76
2023/06/25 22:26:49;;;;;;;8.55;7.07;;;;;;;;;;10272814;28;20083;-76
2023/06/25 22:31:49;;;;;;;7.77;6.80;;;;;;;;;;10274546;28;20054;-75
2023/06/25 22:36:49;;;;;;;7.67;6.87;;;;;;;;;;10282786;28;20063;-76
2023/06/25 22:41:50;;;;;;;7.37;6.67;;;;;;;;;;10282729;28;20471;-77
2023/06/25 22:46:50;;;;;;;7.23;6.50;;;;;;;;;;10283937;28;20047;-78
2023/06/25 22:51:51;;;;;;;7.93;6.50;;;;;;;;;;10279854;28;20057;-78
2023/06/25 22:56:52;;;;;;;8.70;7.38;;;;;;;;;;10269800;28;20058;-77
2023/06/25 23:01:52;;;;;;;8.45;7.57;;;;;;;;;;10279269;28;20058;-76
2023/06/25 23:06:52;;;;;;;9.60;7.70;;;;;;;;;;10263233;28;20043;-76
2023/06/25 23:11:53;;;;;;;9.32;8.07;;;;;;;;;;10284568;28;20782;-77
2023/06/25 23:16:53;;;;;;;8.23;7.43;;;;;;;;;;10274139;28;20050;-74
2023/06/25 23:21:53;;;;;;;8.97;7.73;;;;;;;;;;10254604;28;20047;-75
2023/06/25 23:26:54;;;;;;;8.17;7.37;;;;;;;;;;10278641;28;20042;-77
2023/06/25 23:31:56;;;;;;;8.98;8.07;;;;;;;;;;10264808;28;20126;-76
2023/06/25 23:36:57;;;;;;;8.18;7.18;;;;;;;;;;10260543;28;20146;-75
2023/06/25 23:41:58;;;;;;;8.73;7.30;;;;;;;;;;10261546;28;20046;-76
2023/06/25 23:46:58;;;;;;;8.63;7.50;;;;;;;;;;10272963;28;20118;-75
2023/06/25 23:51:59;;;;;;;11.40;7.80;;;;;;;;;;10259063;28;20074;-75
2023/06/25 23:56:59;;;;;;;8.38;7.38;;;;;;;;;;10276385;28;20285;-76
